Spring Lake, North Carolina
Current Conditions -  °F | °C
As of 7:59 AM on Thursday 27 Nov 2014 (Local Time) from KPOB Reporting Station
Haze Haze  
Wind Chill: 41°   Ceiling: Unl
Heat Index: 41°   Visibility: 6mi
Dew Point: 39°   Wind: 3mph
Humidity: 93%   Direction: 30°NNE
Pressure: 30.01"   Gusts: NA
Location:  35.17°N, 78.97°W
Report Text: KPOB 271259Z AUTO 03003KT 6SM BR FEW001 05/04 A3001 RMK AO2
Loading
Personal Weather Stations






























Interactive Weather Map New forecast layout! Learn more

10-Day Weather Forecast

Advertisements
Track Severe Weather on mobile